Pure Adrenalin — VJD3680 — position and weather

sailwx.info

Track history (hours):
 
Tides and Currents Weather Stations Pressure Air Temp Water Temp Dewpoint Dewpoint Depression Visibility Wind Speed Wind Dir Waves Ship Positions

Pure Adrenalin

Last reported at 2014-Sep-15 03:14 UTC. Time now 2014-Sep-15 04:06 UTC.
Position S 12°18' E 130°26'.

Length 21 m.

Type: Ship. MMSI: 503642100.

Date/timePositionNaut miles runAvg speedWind from/ knotsBaromVisibWave heightAir tempDewpointWater temp
2014-Sep-15 03:14S 12°18' E 130°26'1421.1
2014-Sep-15 02:33S 12°22' E 130°41'9 1.4
2014-Sep-14 20:21S 12°27' E 130°48'1719.8
2014-Sep-14 19:30S 12°20' E 130°33'9 2.6
2014-Sep-14 16:05S 12°18' E 130°24'0 0.2
2014-Sep-14 14:20S 12°18' E 130°24'0 0.0
2014-Sep-14 13:33S 12°18' E 130°24'0 0.0
2014-Sep-14 12:33S 12°18' E 130°24'1 0.7
2014-Sep-14 11:31S 12°17' E 130°24'6 6.4
2014-Sep-14 10:30S 12°19' E 130°30'1615.8
2014-Sep-14 09:29S 12°25' E 130°46'5 4.1
2014-Sep-14 08:19S 12°28' E 130°49'1620.1
2014-Sep-14 07:31S 12°20' E 130°35'1010.0
2014-Sep-14 06:30S 12°17' E 130°25'1 1.3
2014-Sep-14 05:32S 12°18' E 130°24'0 0.4
2014-Sep-14 04:32S 12°18' E 130°24'0 0.2
2014-Sep-14 03:32S 12°18' E 130°24'1 0.8
2014-Sep-14 02:31S 12°18' E 130°25'1 1.5
2014-Sep-14 01:32S 12°16' E 130°25'20 4.9
2014-Sep-13 21:33S 12°23' E 130°43'9 7.7
2014-Sep-13 20:25S 12°28' E 130°51'1717.7
2014-Sep-13 19:28S 12°20' E 130°36'11 3.8
2014-Sep-13 16:27S 12°16' E 130°25'0 0.0
2014-Sep-13 15:27S 12°16' E 130°25'0 0.0
2014-Sep-13 14:33S 12°16' E 130°25'0 0.1
2014-Sep-13 13:33S 12°16' E 130°25'0 0.0
2014-Sep-13 12:33S 12°16' E 130°25'1615.7
2014-Sep-13 11:33S 12°22' E 130°40'1310.4
2014-Sep-13 10:21S 12°28' E 130°51'0 0.0
2014-Sep-13 09:21S 12°28' E 130°51'1 1.1
2014-Sep-13 08:16S 12°28' E 130°50'1622.3
2014-Sep-13 07:33S 12°21' E 130°36'1210.5
2014-Sep-13 06:25S 12°16' E 130°25'0 0.0
2014-Sep-13 04:29S 12°16' E 130°25'1 1.3
2014-Sep-13 03:33S 12°17' E 130°25'1816.7
2014-Sep-13 02:29S 12°23' E 130°42'10 5.1
2014-Sep-13 00:29S 12°28' E 130°51'1919.2
2014-Sep-12 23:31S 12°20' E 130°34'7 7.2
2014-Sep-12 22:33S 12°18' E 130°27'1010.2
2014-Sep-12 21:33S 12°21' E 130°37'11 5.7
2014-Sep-12 19:33S 12°26' E 130°47'2020.1
2014-Sep-12 18:33S 12°17' E 130°29'4 1.9
2014-Sep-12 16:28S 12°16' E 130°25'0 0.0
2014-Sep-12 15:31S 12°16' E 130°25'0 0.0
2014-Sep-12 14:31S 12°16' E 130°25'0 0.0
2014-Sep-12 13:31S 12°16' E 130°25'0 0.1
2014-Sep-12 12:31S 12°16' E 130°25'0 0.0
2014-Sep-12 11:31S 12°16' E 130°25'6 5.8
2014-Sep-12 10:30S 12°18' E 130°30'1716.6
2014-Sep-12 09:30S 12°25' E 130°46'6 4.7
2014-Sep-12 08:17S 12°28' E 130°51'1721.4
2014-Sep-12 07:29S 12°20' E 130°36'9 9.0
2014-Sep-12 06:29S 12°16' E 130°27'1 1.0
2014-Sep-12 05:29S 12°16' E 130°26'0 0.0
2014-Sep-12 04:29S 12°16' E 130°26'0 0.0
2014-Sep-12 03:32S 12°16' E 130°26'0 0.0
2014-Sep-12 02:32S 12°16' E 130°26'0 0.0
2014-Sep-12 01:32S 12°16' E 130°26'0 0.0
2014-Sep-12 00:32S 12°16' E 130°26'0 0.0
2014-Sep-11 23:08S 12°16' E 130°26'1 1.4
2014-Sep-11 22:32S 12°17' E 130°27'2019.8
2014-Sep-11 21:32S 12°24' E 130°45'1 0.5
2014-Sep-11 19:33S 12°24' E 130°44'1918.5
2014-Sep-11 18:33S 12°17' E 130°27'1 0.7
2014-Sep-11 17:08S 12°16' E 130°26'0 0.0
2014-Sep-11 16:32S 12°16' E 130°26'0 0.0
2014-Sep-11 15:23S 12°16' E 130°26'0 0.0
2014-Sep-11 14:33S 12°16' E 130°26'0 0.0
2014-Sep-11 13:33S 12°16' E 130°26'0 0.0
2014-Sep-11 12:30S 12°16' E 130°26'2 1.7
2014-Sep-11 11:33S 12°18' E 130°27'1 0.6
2014-Sep-11 10:26S 12°18' E 130°27'1718.1
2014-Sep-11 09:29S 12°23' E 130°44'6 6.1
2014-Sep-11 08:27S 12°28' E 130°49'1921.4
2014-Sep-11 07:33S 12°19' E 130°31'6 4.7
2014-Sep-11 06:21S 12°16' E 130°26'0 0.1
2014-Sep-11 05:33S 12°16' E 130°26'0 0.0
2014-Sep-11 03:27S 12°16' E 130°26'0 0.0
2014-Sep-11 02:27S 12°16' E 130°26'0 0.0
2014-Sep-11 01:27S 12°16' E 130°26'0 0.0
2014-Sep-11 00:15S 12°16' E 130°26'1 2.1
2014-Sep-10 23:33S 12°17' E 130°27'1918.9
2014-Sep-10 22:33S 12°24' E 130°45'0 0.1
2014-Sep-10 19:31S 12°24' E 130°45'2018.5
2014-Sep-10 18:26S 12°16' E 130°26'0 0.0
2014-Sep-10 17:33S 12°16' E 130°26'0 0.0
2014-Sep-10 16:21S 12°16' E 130°26'0 0.2
2014-Sep-10 15:33S 12°16' E 130°26'1 0.7
2014-Sep-10 14:29S 12°16' E 130°27'1 1.1
2014-Sep-10 13:33S 12°16' E 130°28'1 1.4
2014-Sep-10 12:33S 12°17' E 130°28'1 0.8
2014-Sep-10 11:33S 12°18' E 130°28'1 1.0
2014-Sep-10 10:34S 12°18' E 130°29'1616.3
2014-Sep-10 09:34S 12°24' E 130°44'6 4.5
2014-Sep-10 08:09S 12°28' E 130°49'1321.4
2014-Sep-10 07:32S 12°21' E 130°38'1111.4
2014-Sep-10 06:32S 12°17' E 130°27'0 0.0
2014-Sep-10 05:32S 12°17' E 130°27'1413.6
2014-Sep-10 04:30S 12°22' E 130°40'1414.2
2014-Sep-10 03:31S 12°18' E 130°26'1 0.9
2014-Sep-10 02:33S 12°18' E 130°27'8 7.7
2014-Sep-10 01:33S 12°20' E 130°35'10 4.8
2014-Sep-09 23:31S 12°23' E 130°44'1715.4
2014-Sep-09 22:25S 12°18' E 130°28'1618.4
2014-Sep-09 21:33S 12°23' E 130°43'9 6.3
2014-Sep-09 20:04S 12°28' E 130°51'1 1.2
2014-Sep-09 19:28S 12°28' E 130°51'3 2.9
2014-Sep-09 18:32S 12°27' E 130°48'2019.7
2014-Sep-09 17:31S 12°18' E 130°30'2 2.4
2014-Sep-09 16:31S 12°17' E 130°28'2 1.4
2014-Sep-09 15:28S 12°18' E 130°27'1 1.3
2014-Sep-09 14:32S 12°17' E 130°28'2 1.9
2014-Sep-09 13:33S 12°19' E 130°27'1 1.4
2014-Sep-09 12:32S 12°18' E 130°28'0 0.2
2014-Sep-09 11:30S 12°18' E 130°28'1 0.7
2014-Sep-09 10:33S 12°18' E 130°28'1919.0
2014-Sep-09 09:33S 12°25' E 130°46'3 2.6
2014-Sep-09 08:30S 12°27' E 130°48'2221.9
2014-Sep-09 07:30S 12°18' E 130°28'1313.2
2014-Sep-09 06:29S 12°22' E 130°41'8 2.8
2014-Sep-09 03:33S 12°27' E 130°48'2120.6
2014-Sep-09 02:33S 12°18' E 130°28'1313.3
2014-Sep-09 01:34S 12°22' E 130°41'5 2.3
2014-Sep-08 23:31S 12°24' E 130°45'1817.8
2014-Sep-08 22:29S 12°18' E 130°28'9 9.9
2014-Sep-08 21:33S 12°20' E 130°37'12 6.2
2014-Sep-08 19:33S 12°27' E 130°48'1919.0
2014-Sep-08 18:33S 12°18' E 130°31'2 1.7
2014-Sep-08 17:27S 12°18' E 130°29'0 0.0
2014-Sep-08 16:30S 12°18' E 130°29'0 0.1
2014-Sep-08 15:30S 12°18' E 130°29'0 0.0
2014-Sep-08 13:31S 12°18' E 130°29'0 0.0
2014-Sep-08 12:07S 12°18' E 130°29'0 0.3
2014-Sep-08 11:22S 12°18' E 130°29'0 0.6
2014-Sep-08 10:33S 12°18' E 130°29'1717.0
2014-Sep-08 09:33S 12°24' E 130°45'7 3.3
2014-Sep-08 07:29S 12°22' E 130°39'1011.0
2014-Sep-08 06:33S 12°18' E 130°29'1 1.0
2014-Sep-08 05:27S 12°17' E 130°29'2 2.0
2014-Sep-08 04:32S 12°18' E 130°31'1 1.0
2014-Sep-08 03:29S 12°18' E 130°30'1 1.4
2014-Sep-08 02:32S 12°17' E 130°29'1 1.0
2014-Sep-08 01:31S 12°17' E 130°28'1 1.1
2014-Sep-08 00:33S 12°17' E 130°29'1 0.8
2014-Sep-07 23:32S 12°16' E 130°28'1 1.2
2014-Sep-07 22:34S 12°17' E 130°29'1111.3
2014-Sep-07 21:33S 12°21' E 130°40'13 9.1
2014-Sep-07 20:08S 12°28' E 130°51'1015.6
2014-Sep-07 19:30S 12°23' E 130°43'1413.7
2014-Sep-07 18:30S 12°18' E 130°29'0 0.0
2014-Sep-07 17:29S 12°18' E 130°29'1 1.2
2014-Sep-07 16:27S 12°17' E 130°30'1 0.8
2014-Sep-07 15:32S 12°18' E 130°31'1 0.5
2014-Sep-07 14:31S 12°18' E 130°30'1 0.5
2014-Sep-07 13:26S 12°18' E 130°30'0 0.0
2014-Sep-07 12:21S 12°18' E 130°30'0 0.0
2014-Sep-07 11:28S 12°18' E 130°30'1 0.6
2014-Sep-07 10:31S 12°18' E 130°30'2019.9
2014-Sep-07 09:30S 12°27' E 130°49'1 0.4
2014-Sep-07 08:10S 12°28' E 130°49'1319.2
2014-Sep-07 07:31S 12°21' E 130°38'7 6.7
2014-Sep-07 06:26S 12°19' E 130°31'1 0.6
2014-Sep-07 05:25S 12°18' E 130°31'1 1.1
2014-Sep-07 04:28S 12°17' E 130°30'1 0.5
2014-Sep-07 03:11S 12°17' E 130°30'0 0.5
2014-Sep-07 02:25S 12°17' E 130°31'0 0.3
2014-Sep-07 01:33S 12°17' E 130°31'2020.0
2014-Sep-07 00:33S 12°27' E 130°48'8 7.8
2014-Sep-06 23:33S 12°22' E 130°42'1110.0
2014-Sep-06 22:28S 12°18' E 130°32'1920.2
2014-Sep-06 21:33S 12°27' E 130°48'3 1.9
2014-Sep-06 20:08S 12°28' E 130°51'1 0.8
2014-Sep-06 19:20S 12°28' E 130°51'2 2.4
2014-Sep-06 18:33S 12°28' E 130°49'2020.1
2014-Sep-06 17:33S 12°17' E 130°31'1 1.4
2014-Sep-06 16:32S 12°17' E 130°30'0 0.0
2014-Sep-06 15:32S 12°17' E 130°30'0 0.0
2014-Sep-06 14:34S 12°17' E 130°30'7 6.7
2014-Sep-06 13:33S 12°20' E 130°36'1510.7
2014-Sep-06 12:10S 12°28' E 130°49'1219.6
2014-Sep-06 11:33S 12°21' E 130°39'9 8.4
2014-Sep-06 10:30S 12°18' E 130°30'1514.8
2014-Sep-06 09:29S 12°24' E 130°44'8 5.7
2014-Sep-06 08:09S 12°28' E 130°51'1117.5
2014-Sep-06 07:31S 12°22' E 130°42'1010.1
2014-Sep-06 06:31S 12°20' E 130°31'3 2.9
2014-Sep-06 05:33S 12°23' E 130°31'1 0.9
2014-Sep-06 04:32S 12°22' E 130°31'1 0.9
2014-Sep-06 03:33S 12°21' E 130°31'1 0.9
2014-Sep-06 02:28S 12°20' E 130°31'1 0.8
2014-Sep-06 01:33S 12°20' E 130°31'1 0.9
2014-Sep-06 00:30S 12°19' E 130°32'1 0.9
2014-Sep-05 23:29S 12°18' E 130°32'1 1.0
2014-Sep-05 22:29S 12°18' E 130°33'1314.2
2014-Sep-05 21:32S 12°24' E 130°45'2 0.9
2014-Sep-05 19:31S 12°26' E 130°47'1714.6
2014-Sep-05 18:20S 12°18' E 130°31'0 0.0
2014-Sep-05 17:32S 12°18' E 130°31'0 0.0
2014-Sep-05 16:23S 12°18' E 130°31'0 0.0
2014-Sep-05 15:26S 12°18' E 130°31'1 0.7
2014-Sep-05 14:31S 12°17' E 130°31'0 0.0
2014-Sep-05 12:31S 12°17' E 130°31'0 0.0
2014-Sep-05 11:31S 12°17' E 130°31'1 0.8
2014-Sep-05 10:32S 12°18' E 130°31'1616.6
2014-Sep-05 09:33S 12°25' E 130°46'4 2.7
2014-Sep-05 08:03S 12°28' E 130°49'1121.5
2014-Sep-05 07:33S 12°21' E 130°40'3 3.3
2014-Sep-05 06:33S 12°20' E 130°37'1414.1
2014-Sep-05 05:33S 12°28' E 130°49'1918.7
2014-Sep-05 04:33S 12°17' E 130°34'1 1.2
2014-Sep-05 03:28S 12°16' E 130°33'  
Track history (hours):
 
Tides and Currents Weather Stations Pressure Air Temp Water Temp Dewpoint Dewpoint Depression Visibility Wind Speed Wind Dir Waves Ship Positions

Pure Adrenalin

Last reported at 2014-Sep-15 03:14 UTC. Time now 2014-Sep-15 04:06 UTC.
Position S 12°18' E 130°26'.

Length 21 m.

Type: Ship. MMSI: 503642100.

Date/timePositionNaut miles runAvg speedWind from/ knotsBaromVisibWave heightAir tempDewpointWater temp
2014-Sep-15 03:14S 12°18' E 130°26'1421.1
2014-Sep-15 02:33S 12°22' E 130°41'9 1.4
2014-Sep-14 20:21S 12°27' E 130°48'1719.8
2014-Sep-14 19:30S 12°20' E 130°33'9 2.6
2014-Sep-14 16:05S 12°18' E 130°24'0 0.2
2014-Sep-14 14:20S 12°18' E 130°24'0 0.0
2014-Sep-14 13:33S 12°18' E 130°24'0 0.0
2014-Sep-14 12:33S 12°18' E 130°24'1 0.7
2014-Sep-14 11:31S 12°17' E 130°24'6 6.4
2014-Sep-14 10:30S 12°19' E 130°30'1615.8
2014-Sep-14 09:29S 12°25' E 130°46'5 4.1
2014-Sep-14 08:19S 12°28' E 130°49'1620.1
2014-Sep-14 07:31S 12°20' E 130°35'1010.0
2014-Sep-14 06:30S 12°17' E 130°25'1 1.3
2014-Sep-14 05:32S 12°18' E 130°24'0 0.4
2014-Sep-14 04:32S 12°18' E 130°24'0 0.2
2014-Sep-14 03:32S 12°18' E 130°24'1 0.8
2014-Sep-14 02:31S 12°18' E 130°25'1 1.5
2014-Sep-14 01:32S 12°16' E 130°25'20 4.9
2014-Sep-13 21:33S 12°23' E 130°43'9 7.7
2014-Sep-13 20:25S 12°28' E 130°51'1717.7
2014-Sep-13 19:28S 12°20' E 130°36'11 3.8
2014-Sep-13 16:27S 12°16' E 130°25'0 0.0
2014-Sep-13 15:27S 12°16' E 130°25'0 0.0
2014-Sep-13 14:33S 12°16' E 130°25'0 0.1
2014-Sep-13 13:33S 12°16' E 130°25'0 0.0
2014-Sep-13 12:33S 12°16' E 130°25'1615.7
2014-Sep-13 11:33S 12°22' E 130°40'1310.4
2014-Sep-13 10:21S 12°28' E 130°51'0 0.0
2014-Sep-13 09:21S 12°28' E 130°51'1 1.1
2014-Sep-13 08:16S 12°28' E 130°50'1622.3
2014-Sep-13 07:33S 12°21' E 130°36'1210.5
2014-Sep-13 06:25S 12°16' E 130°25'0 0.0
2014-Sep-13 04:29S 12°16' E 130°25'1 1.3
2014-Sep-13 03:33S 12°17' E 130°25'1816.7
2014-Sep-13 02:29S 12°23' E 130°42'10 5.1
2014-Sep-13 00:29S 12°28' E 130°51'1919.2
2014-Sep-12 23:31S 12°20' E 130°34'7 7.2
2014-Sep-12 22:33S 12°18' E 130°27'1010.2
2014-Sep-12 21:33S 12°21' E 130°37'11 5.7
2014-Sep-12 19:33S 12°26' E 130°47'2020.1
2014-Sep-12 18:33S 12°17' E 130°29'4 1.9
2014-Sep-12 16:28S 12°16' E 130°25'0 0.0
2014-Sep-12 15:31S 12°16' E 130°25'0 0.0
2014-Sep-12 14:31S 12°16' E 130°25'0 0.0
2014-Sep-12 13:31S 12°16' E 130°25'0 0.1
2014-Sep-12 12:31S 12°16' E 130°25'0 0.0
2014-Sep-12 11:31S 12°16' E 130°25'6 5.8
2014-Sep-12 10:30S 12°18' E 130°30'1716.6
2014-Sep-12 09:30S 12°25' E 130°46'6 4.7
2014-Sep-12 08:17S 12°28' E 130°51'1721.4
2014-Sep-12 07:29S 12°20' E 130°36'9 9.0
2014-Sep-12 06:29S 12°16' E 130°27'1 1.0
2014-Sep-12 05:29S 12°16' E 130°26'0 0.0
2014-Sep-12 04:29S 12°16' E 130°26'0 0.0
2014-Sep-12 03:32S 12°16' E 130°26'0 0.0
2014-Sep-12 02:32S 12°16' E 130°26'0 0.0
2014-Sep-12 01:32S 12°16' E 130°26'0 0.0
2014-Sep-12 00:32S 12°16' E 130°26'0 0.0
2014-Sep-11 23:08S 12°16' E 130°26'1 1.4
2014-Sep-11 22:32S 12°17' E 130°27'2019.8
2014-Sep-11 21:32S 12°24' E 130°45'1 0.5
2014-Sep-11 19:33S 12°24' E 130°44'1918.5
2014-Sep-11 18:33S 12°17' E 130°27'1 0.7
2014-Sep-11 17:08S 12°16' E 130°26'0 0.0
2014-Sep-11 16:32S 12°16' E 130°26'0 0.0
2014-Sep-11 15:23S 12°16' E 130°26'0 0.0
2014-Sep-11 14:33S 12°16' E 130°26'0 0.0
2014-Sep-11 13:33S 12°16' E 130°26'0 0.0
2014-Sep-11 12:30S 12°16' E 130°26'2 1.7
2014-Sep-11 11:33S 12°18' E 130°27'1 0.6
2014-Sep-11 10:26S 12°18' E 130°27'1718.1
2014-Sep-11 09:29S 12°23' E 130°44'6 6.1
2014-Sep-11 08:27S 12°28' E 130°49'1921.4
2014-Sep-11 07:33S 12°19' E 130°31'6 4.7
2014-Sep-11 06:21S 12°16' E 130°26'0 0.1
2014-Sep-11 05:33S 12°16' E 130°26'0 0.0
2014-Sep-11 03:27S 12°16' E 130°26'0 0.0
2014-Sep-11 02:27S 12°16' E 130°26'0 0.0
2014-Sep-11 01:27S 12°16' E 130°26'0 0.0
2014-Sep-11 00:15S 12°16' E 130°26'1 2.1
2014-Sep-10 23:33S 12°17' E 130°27'1918.9
2014-Sep-10 22:33S 12°24' E 130°45'0 0.1
2014-Sep-10 19:31S 12°24' E 130°45'2018.5
2014-Sep-10 18:26S 12°16' E 130°26'0 0.0
2014-Sep-10 17:33S 12°16' E 130°26'0 0.0
2014-Sep-10 16:21S 12°16' E 130°26'0 0.2
2014-Sep-10 15:33S 12°16' E 130°26'1 0.7
2014-Sep-10 14:29S 12°16' E 130°27'1 1.1
2014-Sep-10 13:33S 12°16' E 130°28'1 1.4
2014-Sep-10 12:33S 12°17' E 130°28'1 0.8
2014-Sep-10 11:33S 12°18' E 130°28'1 1.0
2014-Sep-10 10:34S 12°18' E 130°29'1616.3
2014-Sep-10 09:34S 12°24' E 130°44'6 4.5
2014-Sep-10 08:09S 12°28' E 130°49'1321.4
2014-Sep-10 07:32S 12°21' E 130°38'1111.4
2014-Sep-10 06:32S 12°17' E 130°27'0 0.0
2014-Sep-10 05:32S 12°17' E 130°27'1413.6
2014-Sep-10 04:30S 12°22' E 130°40'1414.2
2014-Sep-10 03:31S 12°18' E 130°26'1 0.9
2014-Sep-10 02:33S 12°18' E 130°27'8 7.7
2014-Sep-10 01:33S 12°20' E 130°35'10 4.8
2014-Sep-09 23:31S 12°23' E 130°44'1715.4
2014-Sep-09 22:25S 12°18' E 130°28'1618.4
2014-Sep-09 21:33S 12°23' E 130°43'9 6.3
2014-Sep-09 20:04S 12°28' E 130°51'1 1.2
2014-Sep-09 19:28S 12°28' E 130°51'3 2.9
2014-Sep-09 18:32S 12°27' E 130°48'2019.7
2014-Sep-09 17:31S 12°18' E 130°30'2 2.4
2014-Sep-09 16:31S 12°17' E 130°28'2 1.4
2014-Sep-09 15:28S 12°18' E 130°27'1 1.3
2014-Sep-09 14:32S 12°17' E 130°28'2 1.9
2014-Sep-09 13:33S 12°19' E 130°27'1 1.4
2014-Sep-09 12:32S 12°18' E 130°28'0 0.2
2014-Sep-09 11:30S 12°18' E 130°28'1 0.7
2014-Sep-09 10:33S 12°18' E 130°28'1919.0
2014-Sep-09 09:33S 12°25' E 130°46'3 2.6
2014-Sep-09 08:30S 12°27' E 130°48'2221.9
2014-Sep-09 07:30S 12°18' E 130°28'1313.2
2014-Sep-09 06:29S 12°22' E 130°41'8 2.8
2014-Sep-09 03:33S 12°27' E 130°48'2120.6
2014-Sep-09 02:33S 12°18' E 130°28'1313.3
2014-Sep-09 01:34S 12°22' E 130°41'5 2.3
2014-Sep-08 23:31S 12°24' E 130°45'1817.8
2014-Sep-08 22:29S 12°18' E 130°28'9 9.9
2014-Sep-08 21:33S 12°20' E 130°37'12 6.2
2014-Sep-08 19:33S 12°27' E 130°48'1919.0
2014-Sep-08 18:33S 12°18' E 130°31'2 1.7
2014-Sep-08 17:27S 12°18' E 130°29'0 0.0
2014-Sep-08 16:30S 12°18' E 130°29'0 0.1
2014-Sep-08 15:30S 12°18' E 130°29'0 0.0
2014-Sep-08 13:31S 12°18' E 130°29'0 0.0
2014-Sep-08 12:07S 12°18' E 130°29'0 0.3
2014-Sep-08 11:22S 12°18' E 130°29'0 0.6
2014-Sep-08 10:33S 12°18' E 130°29'1717.0
2014-Sep-08 09:33S 12°24' E 130°45'7 3.3
2014-Sep-08 07:29S 12°22' E 130°39'1011.0
2014-Sep-08 06:33S 12°18' E 130°29'1 1.0
2014-Sep-08 05:27S 12°17' E 130°29'2 2.0
2014-Sep-08 04:32S 12°18' E 130°31'1 1.0
2014-Sep-08 03:29S 12°18' E 130°30'1 1.4
2014-Sep-08 02:32S 12°17' E 130°29'1 1.0
2014-Sep-08 01:31S 12°17' E 130°28'1 1.1
2014-Sep-08 00:33S 12°17' E 130°29'1 0.8
2014-Sep-07 23:32S 12°16' E 130°28'1 1.2
2014-Sep-07 22:34S 12°17' E 130°29'1111.3
2014-Sep-07 21:33S 12°21' E 130°40'13 9.1
2014-Sep-07 20:08S 12°28' E 130°51'1015.6
2014-Sep-07 19:30S 12°23' E 130°43'1413.7
2014-Sep-07 18:30S 12°18' E 130°29'0 0.0
2014-Sep-07 17:29S 12°18' E 130°29'1 1.2
2014-Sep-07 16:27S 12°17' E 130°30'1 0.8
2014-Sep-07 15:32S 12°18' E 130°31'1 0.5
2014-Sep-07 14:31S 12°18' E 130°30'1 0.5
2014-Sep-07 13:26S 12°18' E 130°30'0 0.0
2014-Sep-07 12:21S 12°18' E 130°30'0 0.0
2014-Sep-07 11:28S 12°18' E 130°30'1 0.6
2014-Sep-07 10:31S 12°18' E 130°30'2019.9
2014-Sep-07 09:30S 12°27' E 130°49'1 0.4
2014-Sep-07 08:10S 12°28' E 130°49'1319.2
2014-Sep-07 07:31S 12°21' E 130°38'7 6.7
2014-Sep-07 06:26S 12°19' E 130°31'1 0.6
2014-Sep-07 05:25S 12°18' E 130°31'1 1.1
2014-Sep-07 04:28S 12°17' E 130°30'1 0.5
2014-Sep-07 03:11S 12°17' E 130°30'0 0.5
2014-Sep-07 02:25S 12°17' E 130°31'0 0.3
2014-Sep-07 01:33S 12°17' E 130°31'2020.0
2014-Sep-07 00:33S 12°27' E 130°48'8 7.8
2014-Sep-06 23:33S 12°22' E 130°42'1110.0
2014-Sep-06 22:28S 12°18' E 130°32'1920.2
2014-Sep-06 21:33S 12°27' E 130°48'3 1.9
2014-Sep-06 20:08S 12°28' E 130°51'1 0.8
2014-Sep-06 19:20S 12°28' E 130°51'2 2.4
2014-Sep-06 18:33S 12°28' E 130°49'2020.1
2014-Sep-06 17:33S 12°17' E 130°31'1 1.4
2014-Sep-06 16:32S 12°17' E 130°30'0 0.0
2014-Sep-06 15:32S 12°17' E 130°30'0 0.0
2014-Sep-06 14:34S 12°17' E 130°30'7 6.7
2014-Sep-06 13:33S 12°20' E 130°36'1510.7
2014-Sep-06 12:10S 12°28' E 130°49'1219.6
2014-Sep-06 11:33S 12°21' E 130°39'9 8.4
2014-Sep-06 10:30S 12°18' E 130°30'1514.8
2014-Sep-06 09:29S 12°24' E 130°44'8 5.7
2014-Sep-06 08:09S 12°28' E 130°51'1117.5
2014-Sep-06 07:31S 12°22' E 130°42'1010.1
2014-Sep-06 06:31S 12°20' E 130°31'3 2.9
2014-Sep-06 05:33S 12°23' E 130°31'1 0.9
2014-Sep-06 04:32S 12°22' E 130°31'1 0.9
2014-Sep-06 03:33S 12°21' E 130°31'1 0.9
2014-Sep-06 02:28S 12°20' E 130°31'1 0.8
2014-Sep-06 01:33S 12°20' E 130°31'1 0.9
2014-Sep-06 00:30S 12°19' E 130°32'1 0.9
2014-Sep-05 23:29S 12°18' E 130°32'1 1.0
2014-Sep-05 22:29S 12°18' E 130°33'1314.2
2014-Sep-05 21:32S 12°24' E 130°45'2 0.9
2014-Sep-05 19:31S 12°26' E 130°47'1714.6
2014-Sep-05 18:20S 12°18' E 130°31'0 0.0
2014-Sep-05 17:32S 12°18' E 130°31'0 0.0
2014-Sep-05 16:23S 12°18' E 130°31'0 0.0
2014-Sep-05 15:26S 12°18' E 130°31'1 0.7
2014-Sep-05 14:31S 12°17' E 130°31'0 0.0
2014-Sep-05 12:31S 12°17' E 130°31'0 0.0
2014-Sep-05 11:31S 12°17' E 130°31'1 0.8
2014-Sep-05 10:32S 12°18' E 130°31'1616.6
2014-Sep-05 09:33S 12°25' E 130°46'4 2.7
2014-Sep-05 08:03S 12°28' E 130°49'1121.5
2014-Sep-05 07:33S 12°21' E 130°40'3 3.3
2014-Sep-05 06:33S 12°20' E 130°37'1414.1
2014-Sep-05 05:33S 12°28' E 130°49'1918.7
2014-Sep-05 04:33S 12°17' E 130°34'1 1.2
2014-Sep-05 03:28S 12°16' E 130°33'  

Dump ship's entire track history